Time;durP1;ratioP1;P1;durP2;ratioP2;P2;SDS_P1;SDS_P2;PMS_P1;PMS_P2;Temp;Humidity;BMP_temperature;BMP_pressure;BME280_temperature;BME280_humidity;BME280_pressure;Samples;Min_cycle;Max_cycle;Signal;HPM_P1;HPM_P2
2023/06/04 00:02:47;;;;;;;2.28;1.10;;;;;;;9.79;56.15;101503.84;6028266;28;20423;-67
2023/06/04 00:05:43;;;;;;;2.67;1.23;;;;;;;10.05;53.97;101502.63;6027513;28;20037;-67
2023/06/04 00:08:38;;;;;;;2.57;0.90;;;;;;;10.09;53.88;101487.28;6027853;28;20033;-67
2023/06/04 00:11:35;;;;;;;3.83;1.00;;;;;;;9.87;53.62;101482.88;6014878;28;20426;-67
2023/06/04 00:14:30;;;;;;;3.10;1.15;;;;;;;9.69;54.76;101499.38;6027607;28;20477;-67
2023/06/04 00:17:25;;;;;;;1.77;1.00;;;;;;;9.56;55.89;101503.03;6027844;28;20041;-67
2023/06/04 00:20:21;;;;;;;2.23;0.93;;;;;;;9.26;56.39;101481.56;6022961;28;20370;-67
2023/06/04 00:23:16;;;;;;;2.60;1.07;;;;;;;9.13;57.50;101483.47;6010548;28;20037;-67
2023/06/04 00:26:11;;;;;;;5.13;1.33;;;;;;;9.08;58.58;101487.44;6027505;28;20285;-67
2023/06/04 00:29:07;;;;;;;3.43;1.10;;;;;;;9.69;57.35;101494.94;6027849;28;20027;-67
2023/06/04 00:32:02;;;;;;;3.13;1.40;;;;;;;9.69;57.33;101483.50;6026863;28;20041;-67
2023/06/04 00:34:57;;;;;;;3.55;1.05;;;;;;;9.66;57.00;101489.03;6026655;28;20462;-67
2023/06/04 00:37:53;;;;;;;2.80;1.00;;;;;;;10.00;56.73;101485.41;6026797;28;20120;-67
2023/06/04 00:40:48;;;;;;;2.03;1.20;;;;;;;10.18;57.55;101493.69;6024965;28;20072;-67
2023/06/04 00:43:45;;;;;;;2.30;1.00;;;;;;;9.87;55.57;101484.69;6026167;28;20022;-67
2023/06/04 00:46:40;;;;;;;2.17;1.10;;;;;;;9.48;58.00;101492.16;6027279;28;20289;-67
2023/06/04 00:49:36;;;;;;;2.03;1.10;;;;;;;9.54;58.78;101475.78;6027101;28;20033;-67
2023/06/04 00:52:31;;;;;;;1.00;0.77;;;;;;;9.53;57.51;101473.28;6026309;28;20034;-67
2023/06/04 00:55:26;;;;;;;2.23;1.17;;;;;;;10.03;57.49;101479.84;6026183;28;20365;-67
2023/06/04 00:58:24;;;;;;;2.97;0.83;;;;;;;10.22;55.94;101477.41;6025969;28;20452;-67
2023/06/04 01:01:26;;;;;;;3.38;1.30;;;;;;;10.37;53.87;101470.88;6024006;28;20825;-67
2023/06/04 01:04:43;;;;;;;2.85;1.02;;;;;;;10.49;53.22;101484.94;6017849;28;20031;-67
2023/06/04 01:07:40;;;;;;;1.92;1.17;;;;;;;10.58;53.26;101479.69;6024508;28;20026;-67
2023/06/04 01:10:36;;;;;;;3.20;0.90;;;;;;;10.89;53.44;101487.75;6026118;28;20060;-67
2023/06/04 01:13:31;;;;;;;2.45;1.10;;;;;;;10.87;53.13;101495.00;6022610;28;20043;-67
2023/06/04 01:16:28;;;;;;;2.13;1.10;;;;;;;10.06;54.90;101479.59;6016461;28;20529;-67
2023/06/04 01:19:49;;;;;;;3.75;1.00;;;;;;;9.50;58.27;101489.41;6023402;28;20029;-67
2023/06/04 01:23:33;;;;;;;1.67;0.80;;;;;;;9.54;60.70;101486.38;6027685;28;20029;-67
2023/06/04 01:26:30;;;;;;;3.85;1.42;;;;;;;9.71;59.38;101470.97;6019511;28;20030;-67
2023/06/04 01:29:30;;;;;;;2.97;1.10;;;;;;;9.47;58.73;101479.06;6025380;28;20034;-67
2023/06/04 01:32:25;;;;;;;1.88;0.88;;;;;;;9.06;60.69;101466.38;6024466;28;20049;-67
2023/06/04 01:35:21;;;;;;;1.98;0.90;;;;;;;8.71;62.31;101453.19;6025543;28;20388;-67
2023/06/04 01:38:16;;;;;;;3.25;1.20;;;;;;;9.89;61.98;101469.53;6020817;28;20031;-67
2023/06/04 01:41:11;;;;;;;5.37;1.70;;;;;;;9.61;62.32;101475.31;6018967;28;20034;-67
2023/06/04 01:44:07;;;;;;;2.43;1.13;;;;;;;9.25;59.84;101464.00;6024571;28;20105;-67
2023/06/04 01:47:02;;;;;;;3.57;1.30;;;;;;;9.61;60.35;101483.25;6026095;28;20042;-67
2023/06/04 01:49:57;;;;;;;3.17;1.40;;;;;;;9.32;60.61;101467.03;6025071;28;20382;-66
2023/06/04 01:52:53;;;;;;;3.08;1.33;;;;;;;8.67;62.42;101458.84;6026147;28;20113;-66
2023/06/04 01:55:49;;;;;;;4.70;1.33;;;;;;;8.32;65.23;101472.88;6017262;28;20113;-67
2023/06/04 01:58:44;;;;;;;3.58;1.27;;;;;;;8.18;65.90;101469.53;6019550;28;20366;-67
2023/06/04 02:01:39;;;;;;;2.47;1.00;;;;;;;7.90;66.77;101470.69;6025245;28;20470;-67
2023/06/04 02:04:36;;;;;;;5.17;1.00;;;;;;;7.53;67.91;101467.16;6025141;28;20031;-67
2023/06/04 02:07:31;;;;;;;1.98;0.95;;;;;;;7.43;69.33;101463.50;6032485;28;20462;-67
2023/06/04 02:10:26;;;;;;;4.57;1.20;;;;;;;7.61;68.40;101466.66;6024937;28;20042;-67
2023/06/04 02:13:22;;;;;;;2.60;1.00;;;;;;;7.77;68.29;101473.34;6023473;28;20042;-67
2023/06/04 02:16:17;;;;;;;3.10;1.27;;;;;;;7.69;69.11;101467.78;6025926;28;20524;-67
2023/06/04 02:19:13;;;;;;;2.90;1.20;;;;;;;7.49;69.46;101475.41;6021963;28;20465;-67
2023/06/04 02:22:08;;;;;;;2.42;1.02;;;;;;;7.17;70.73;101467.94;6029796;28;20073;-67
2023/06/04 02:25:05;;;;;;;3.00;0.90;;;;;;;7.18;70.98;101467.00;6029613;28;20070;-67
2023/06/04 02:28:00;;;;;;;2.25;1.23;;;;;;;6.97;71.94;101473.75;6025724;28;20030;-67
2023/06/04 02:30:56;;;;;;;2.05;0.90;;;;;;;7.65;69.91;101476.03;6018388;28;20038;-67
2023/06/04 02:33:51;;;;;;;3.30;1.20;;;;;;;7.04;71.47;101472.38;6030716;28;20034;-67
2023/06/04 02:36:48;;;;;;;2.93;1.20;;;;;;;7.34;71.08;101460.69;6030126;28;20261;-66
2023/06/04 02:39:43;;;;;;;2.78;1.23;;;;;;;7.01;72.03;101454.13;6029813;28;20030;-67
2023/06/04 02:42:38;;;;;;;1.70;1.00;;;;;;;7.03;72.13;101462.78;6029221;28;20030;-67
2023/06/04 02:45:34;;;;;;;2.93;1.20;;;;;;;6.75;75.11;101473.50;6027856;28;20470;-66
2023/06/04 02:48:29;;;;;;;2.37;0.97;;;;;;;6.84;75.13;101482.59;6030077;28;20295;-67
2023/06/04 02:51:24;;;;;;;1.50;0.80;;;;;;;6.80;76.88;101478.44;6027023;28;20042;-67
2023/06/04 02:54:20;;;;;;;2.00;1.05;;;;;;;7.07;75.49;101490.63;6028950;28;20065;-67
2023/06/04 02:57:15;;;;;;;2.33;1.08;;;;;;;6.65;77.04;101474.22;6022972;28;20042;-67
2023/06/04 03:00:12;;;;;;;2.50;1.00;;;;;;;6.54;78.14;101488.13;6015213;28;20553;-67
2023/06/04 03:03:07;;;;;;;2.75;1.20;;;;;;;6.38;78.28;101469.00;6036748;28;20396;-67
2023/06/04 03:06:04;;;;;;;2.83;1.20;;;;;;;6.36;79.61;101486.69;6026696;28;20474;-67
2023/06/04 03:08:59;;;;;;;4.20;1.42;;;;;;;6.26;79.64;101490.84;6029312;28;20376;-67
2023/06/04 03:11:57;;;;;;;2.53;1.00;;;;;;;6.12;80.83;101488.25;6028531;28;20031;-67
2023/06/04 03:14:52;;;;;;;2.95;1.20;;;;;;;5.96;80.75;101477.88;6024167;28;20030;-67
2023/06/04 03:17:48;;;;;;;3.05;1.20;;;;;;;5.89;80.74;101477.44;6029444;28;20029;-66
2023/06/04 03:20:43;;;;;;;2.67;1.10;;;;;;;5.92;80.23;101482.47;6029284;28;20032;-67
2023/06/04 03:23:40;;;;;;;2.13;1.03;;;;;;;5.89;81.28;101485.31;6028285;28;20034;-67
2023/06/04 03:26:35;;;;;;;3.80;1.50;;;;;;;5.82;82.00;101476.06;6028396;28;20041;-67
2023/06/04 03:29:31;;;;;;;5.47;1.30;;;;;;;5.83;84.73;101471.66;6028496;28;20039;-67
2023/06/04 03:32:27;;;;;;;2.55;1.20;;;;;;;5.90;85.49;101492.25;6029174;28;20033;-66
2023/06/04 03:35:22;;;;;;;4.43;1.30;;;;;;;5.97;85.75;101482.19;6023611;28;20034;-67
2023/06/04 03:38:18;;;;;;;4.57;1.40;;;;;;;5.98;84.99;101497.88;6028601;28;20161;-66
2023/06/04 03:41:13;;;;;;;2.83;1.23;;;;;;;5.87;85.52;101496.91;6028974;28;20394;-67
2023/06/04 03:44:09;;;;;;;2.07;1.00;;;;;;;5.76;86.16;101481.72;6021784;28;20030;-66
2023/06/04 03:47:04;;;;;;;2.97;1.23;;;;;;;5.85;86.24;101489.09;6028971;28;20521;-66
2023/06/04 03:49:59;;;;;;;2.23;1.10;;;;;;;5.94;85.81;101499.03;6025408;28;20297;-66
2023/06/04 03:52:55;;;;;;;4.17;1.00;;;;;;;5.94;85.01;101485.03;6022425;28;20320;-66
2023/06/04 03:55:50;;;;;;;1.90;0.90;;;;;;;6.00;85.70;101500.44;6026902;28;20113;-66
2023/06/04 03:58:46;;;;;;;4.70;1.53;;;;;;;5.94;84.97;101480.59;6028264;28;20038;-66
2023/06/04 04:01:42;;;;;;;4.07;1.20;;;;;;;6.06;85.06;101499.19;6028639;28;20083;-67
2023/06/04 04:04:37;;;;;;;3.42;1.00;;;;;;;6.05;85.06;101498.34;6023094;28;20037;-67
2023/06/04 04:07:32;;;;;;;4.60;1.00;;;;;;;6.08;85.44;101497.31;6015972;28;20038;-66
2023/06/04 04:10:28;;;;;;;2.87;1.40;;;;;;;6.19;85.66;101502.72;6016204;28;20274;-66
2023/06/04 04:13:23;;;;;;;3.47;1.40;;;;;;;6.14;85.79;101486.38;6027455;28;20293;-66
2023/06/04 04:16:18;;;;;;;3.10;1.30;;;;;;;6.33;86.44;101511.41;6026634;28;20398;-67
2023/06/04 04:19:14;;;;;;;5.00;1.55;;;;;;;6.43;86.69;101498.50;6027336;28;20026;-66
2023/06/04 04:22:10;;;;;;;4.03;1.30;;;;;;;6.80;86.08;101507.44;6027817;28;20037;-67
2023/06/04 04:25:07;;;;;;;2.15;1.10;;;;;;;7.38;85.01;101499.06;6027347;28;20026;-66
2023/06/04 04:28:06;;;;;;;4.28;1.40;;;;;;;8.00;82.71;101492.84;6027567;28;20029;-67
2023/06/04 04:31:02;;;;;;;2.28;1.02;;;;;;;8.77;78.72;101473.91;6027417;28;20037;-67
2023/06/04 04:33:57;;;;;;;2.78;1.40;;;;;;;9.29;76.33;101476.06;6026680;28;20022;-67
2023/06/04 04:36:53;;;;;;;3.03;1.37;;;;;;;9.98;73.80;101490.81;6019731;28;20035;-67
2023/06/04 04:39:51;;;;;;;4.07;1.30;;;;;;;10.61;71.91;101494.50;6020465;28;20278;-67
2023/06/04 04:42:46;;;;;;;2.50;1.23;;;;;;;11.18;69.17;101473.69;6031750;28;20380;-67
2023/06/04 04:45:42;;;;;;;2.50;1.20;;;;;;;11.73;66.75;101480.41;6050752;28;20037;-67
2023/06/04 04:48:38;;;;;;;4.37;1.70;;;;;;;11.68;64.12;101479.94;6027860;28;20026;-67
2023/06/04 04:51:33;;;;;;;2.40;1.05;;;;;;;12.02;64.10;101472.50;6027451;28;20053;-67
2023/06/04 04:54:29;;;;;;;3.30;1.30;;;;;;;12.71;61.48;101478.59;6020457;28;20026;-67
2023/06/04 04:57:24;;;;;;;3.70;0.97;;;;;;;13.10;57.41;101484.72;6019276;28;20042;-67
2023/06/04 05:00:20;;;;;;;2.10;1.10;;;;;;;13.43;55.57;101483.38;6019601;28;20054;-67
2023/06/04 05:03:15;;;;;;;2.90;1.40;;;;;;;14.06;52.66;101477.19;6023825;28;20034;-67
2023/06/04 05:06:10;;;;;;;1.53;0.93;;;;;;;14.85;47.06;101488.84;6025918;28;20049;-67
2023/06/04 05:09:07;;;;;;;4.00;1.13;;;;;;;15.04;44.69;101477.13;6026135;28;20018;-67
2023/06/04 05:12:02;;;;;;;2.30;1.23;;;;;;;14.46;47.18;101478.66;6023795;28;20026;-67
2023/06/04 05:14:58;;;;;;;2.78;1.10;;;;;;;13.46;49.23;101491.09;6022517;28;20022;-67
2023/06/04 05:17:53;;;;;;;1.83;1.07;;;;;;;13.63;49.06;101474.34;6025630;28;20118;-67
2023/06/04 05:20:49;;;;;;;3.90;1.27;;;;;;;13.90;46.60;101490.34;6026844;28;20261;-67
2023/06/04 05:23:48;;;;;;;3.90;1.05;;;;;;;13.42;50.17;101501.22;6025241;28;20030;-67
2023/06/04 05:26:43;;;;;;;1.85;1.10;;;;;;;14.12;49.08;101494.44;6025710;28;20038;-66
2023/06/04 05:29:38;;;;;;;4.73;1.47;;;;;;;14.60;46.36;101496.78;6025901;28;20025;-67
2023/06/04 05:32:33;;;;;;;3.13;1.10;;;;;;;14.75;46.66;101498.78;6023986;28;20389;-67
2023/06/04 05:35:29;;;;;;;2.27;0.93;;;;;;;15.88;46.09;101490.66;6023353;28;20046;-67
2023/06/04 05:38:30;;;;;;;4.15;1.25;;;;;;;15.09;45.61;101498.88;6026253;28;20022;-67
2023/06/04 05:41:27;;;;;;;3.90;1.25;;;;;;;16.17;43.29;101488.41;6012612;28;20019;-67
2023/06/04 05:44:22;;;;;;;3.75;1.40;;;;;;;16.86;41.57;101481.84;6025954;28;20419;-68
2023/06/04 05:47:18;;;;;;;2.50;1.20;;;;;;;16.46;42.52;101488.00;6016028;28;20037;-67
2023/06/04 05:50:13;;;;;;;1.92;1.00;;;;;;;16.56;42.62;101481.50;6016234;28;20070;-67
2023/06/04 05:53:08;;;;;;;2.33;1.17;;;;;;;17.94;39.64;101486.66;6020020;28;20022;-67
2023/06/04 05:56:04;;;;;;;3.80;1.50;;;;;;;18.84;37.47;101494.81;6029401;28;20281;-67
2023/06/04 05:58:59;;;;;;;4.50;1.35;;;;;;;19.45;36.49;101490.25;6013951;28;20050;-67
2023/06/04 06:01:55;;;;;;;2.72;1.42;;;;;;;18.53;41.22;101494.06;6015301;28;20495;-67
2023/06/04 06:04:50;;;;;;;2.40;1.40;;;;;;;18.14;43.67;101493.25;6015978;28;20036;-67
2023/06/04 06:07:46;;;;;;;2.60;1.23;;;;;;;18.94;41.02;101502.66;6013902;28;20459;-67
2023/06/04 06:10:42;;;;;;;3.45;1.40;;;;;;;18.84;41.95;101508.25;6028242;28;20084;-67
2023/06/04 06:13:37;;;;;;;2.95;1.23;;;;;;;18.82;41.21;101498.72;6018957;28;20381;-67
2023/06/04 06:16:32;;;;;;;5.73;1.37;;;;;;;18.94;39.58;101495.41;6008029;28;20046;-67
2023/06/04 06:19:28;;;;;;;4.10;1.30;;;;;;;19.76;37.31;101498.16;6042148;28;20054;-67
2023/06/04 06:22:23;;;;;;;2.57;1.30;;;;;;;20.70;34.77;101503.41;6020742;28;20045;-67
2023/06/04 06:25:18;;;;;;;2.03;1.13;;;;;;;20.96;34.69;101498.25;6025706;28;20026;-65
2023/06/04 06:28:13;;;;;;;3.23;1.20;;;;;;;20.04;35.96;101505.34;6024679;28;20074;-68
2023/06/04 06:31:09;;;;;;;2.50;1.13;;;;;;;19.83;36.37;101507.97;6021972;28;20034;-67
2023/06/04 06:34:05;;;;;;;3.17;1.23;;;;;;;20.06;35.74;101511.38;6008347;28;20076;-67
2023/06/04 06:37:00;;;;;;;4.10;1.73;;;;;;;20.78;34.51;101505.97;6015888;28;20105;-67
2023/06/04 06:39:55;;;;;;;5.27;1.40;;;;;;;19.73;35.43;101510.09;6023484;28;20035;-67
2023/06/04 06:42:51;;;;;;;2.67;1.30;;;;;;;18.07;39.10;101513.78;6020087;28;20023;-67
2023/06/04 06:45:46;;;;;;;2.37;1.30;;;;;;;17.89;39.44;101526.56;6019212;28;20057;-67
2023/06/04 06:48:44;;;;;;;2.30;1.20;;;;;;;18.60;41.83;101515.66;6014954;28;20292;-67
2023/06/04 06:51:40;;;;;;;3.88;1.27;;;;;;;19.54;39.53;101516.06;6015801;28;20785;-67
2023/06/04 06:54:35;;;;;;;4.07;1.50;;;;;;;20.04;39.18;101517.97;6010357;28;20035;-68
2023/06/04 06:57:30;;;;;;;3.07;1.30;;;;;;;20.26;38.85;101510.81;6016142;28;20273;-68
2023/06/04 07:00:27;;;;;;;4.53;1.20;;;;;;;21.06;37.10;101519.53;6016743;28;20070;-68
2023/06/04 07:03:22;;;;;;;3.05;1.30;;;;;;;19.81;38.96;101533.41;6015519;28;20063;-68
2023/06/04 07:06:18;;;;;;;3.67;1.60;;;;;;;19.74;39.95;101522.53;6017790;28;20042;-67
2023/06/04 07:09:13;;;;;;;4.30;1.57;;;;;;;19.83;39.53;101521.44;6022740;28;20437;-67
2023/06/04 07:12:09;;;;;;;3.13;1.65;;;;;;;19.85;38.28;101529.31;6020790;28;20054;-68
2023/06/04 07:15:05;;;;;;;4.55;1.38;;;;;;;20.32;37.94;101518.13;6020485;28;20042;-68
2023/06/04 07:18:01;;;;;;;2.80;1.50;;;;;;;20.47;38.37;101524.31;6021594;28;20398;-67
2023/06/04 07:20:56;;;;;;;4.97;1.57;;;;;;;20.84;37.43;101518.69;6018513;28;20045;-68
2023/06/04 07:23:51;;;;;;;2.23;1.20;;;;;;;20.76;37.56;101529.63;6028894;28;20023;-68
2023/06/04 07:26:47;;;;;;;2.37;1.17;;;;;;;20.65;37.29;101530.13;6018801;28;20034;-68
2023/06/04 07:29:44;;;;;;;5.20;1.30;;;;;;;20.27;37.04;101509.78;6020726;28;20282;-68
2023/06/04 07:32:39;;;;;;;4.20;1.50;;;;;;;19.93;38.03;101510.38;6021411;28;20173;-68
2023/06/04 07:35:35;;;;;;;4.17;1.50;;;;;;;20.58;37.14;101515.72;6023083;28;20037;-68
2023/06/04 07:38:30;;;;;;;3.53;1.30;;;;;;;20.40;37.94;101518.88;6025866;28;20042;-68
2023/06/04 07:41:28;;;;;;;2.77;1.40;;;;;;;21.14;36.01;101522.09;6026409;28;20038;-68
2023/06/04 07:44:23;;;;;;;3.97;1.35;;;;;;;20.57;36.49;101522.16;6024569;28;20026;-68
2023/06/04 07:47:18;;;;;;;5.00;1.60;;;;;;;21.12;35.35;101524.97;6024582;28;20050;-68
2023/06/04 07:50:14;;;;;;;6.10;1.60;;;;;;;20.69;36.67;101516.06;6025075;28;20049;-67
2023/06/04 07:53:09;;;;;;;3.87;1.40;;;;;;;20.85;36.20;101501.47;6022495;28;20049;-68
2023/06/04 07:56:05;;;;;;;3.40;1.45;;;;;;;21.14;35.32;101520.25;6011476;28;20079;-68
2023/06/04 07:59:00;;;;;;;3.88;1.70;;;;;;;20.38;36.76;101520.91;6027530;28;20042;-68
2023/06/04 08:01:56;;;;;;;5.30;1.50;;;;;;;20.57;35.54;101530.25;6023307;28;20474;-68
2023/06/04 08:04:51;;;;;;;3.40;1.50;;;;;;;20.82;35.83;101526.13;6017190;28;20030;-68
2023/06/04 08:07:47;;;;;;;2.28;1.00;;;;;;;20.79;36.68;101531.91;6023309;28;20282;-68
2023/06/04 08:10:42;;;;;;;5.88;2.00;;;;;;;20.85;36.65;101517.66;6015792;28;20093;-68
2023/06/04 08:13:39;;;;;;;2.73;1.20;;;;;;;20.69;34.64;101517.91;6022189;28;20487;-68
2023/06/04 08:16:34;;;;;;;3.97;1.30;;;;;;;20.80;36.44;101530.88;6018853;28;20610;-68
2023/06/04 08:19:30;;;;;;;2.67;1.43;;;;;;;21.07;36.91;101532.84;6027900;28;20060;-68
2023/06/04 08:22:25;;;;;;;3.65;1.42;;;;;;;21.51;35.12;101529.84;6023995;28;20760;-68
2023/06/04 08:25:20;;;;;;;4.27;1.43;;;;;;;21.45;33.76;101535.19;6026381;28;20034;-68
2023/06/04 08:28:16;;;;;;;3.38;1.17;;;;;;;21.12;32.29;101541.16;6027963;28;20029;-68
2023/06/04 08:31:11;;;;;;;4.78;1.33;;;;;;;21.09;33.81;101529.97;6017246;28;20516;-68
2023/06/04 08:34:07;;;;;;;5.10;1.20;;;;;;;21.25;32.22;101529.69;6026963;28;20029;-68
2023/06/04 08:37:02;;;;;;;7.53;1.40;;;;;;;21.23;33.28;101532.53;6020862;28;20278;-68
2023/06/04 08:39:57;;;;;;;3.00;1.30;;;;;;;21.12;33.27;101529.53;6017196;28;20034;-67
2023/06/04 08:42:58;;;;;;;4.43;1.30;;;;;;;21.32;33.28;101539.47;6020366;28;20305;-68
2023/06/04 08:45:59;;;;;;;3.38;1.33;;;;;;;21.65;31.61;101534.31;6024632;28;20043;-68
2023/06/04 08:48:56;;;;;;;3.58;1.48;;;;;;;22.02;28.53;101530.38;6027060;28;20053;-68
2023/06/04 08:51:51;;;;;;;2.50;1.20;;;;;;;21.56;29.20;101529.25;6025344;28;20588;-68
2023/06/04 08:54:51;;;;;;;3.97;1.00;;;;;;;21.06;30.57;101525.72;6023241;28;20026;-68
2023/06/04 08:57:47;;;;;;;;;;;;;;;21.08;30.63;101541.75;6025644;28;20019;-68
2023/06/04 09:00:42;;;;;;;4.00;1.17;;;;;;;21.29;29.99;101536.34;6011951;28;19920;-68
2023/06/04 09:03:38;;;;;;;2.40;0.97;;;;;;;21.53;30.90;101543.13;6020167;28;20466;-69
2023/06/04 09:06:35;;;;;;;2.83;1.20;;;;;;;21.05;31.74;101551.06;6025284;28;20037;-68
2023/06/04 09:09:31;;;;;;;2.10;1.02;;;;;;;21.38;31.48;101547.81;6012808;28;20030;-68
2023/06/04 09:12:27;;;;;;;4.55;1.20;;;;;;;21.17;31.93;101549.50;6018640;28;20046;-68
2023/06/04 09:15:23;;;;;;;4.43;1.02;;;;;;;21.69;30.10;101538.28;6020960;28;20482;-69
2023/06/04 09:18:18;;;;;;;2.95;1.23;;;;;;;22.35;30.30;101544.03;6026034;28;20042;-68
2023/06/04 09:21:13;;;;;;;2.37;1.10;;;;;;;22.34;29.58;101545.09;6025901;28;20045;-68
2023/06/04 09:24:08;;;;;;;2.10;0.97;;;;;;;22.24;30.57;101534.63;6024894;28;20031;-68
2023/06/04 09:27:14;;;;;;;2.73;1.20;;;;;;;23.00;28.98;101543.38;6022972;28;20458;-66
2023/06/04 09:30:09;;;;;;;6.45;1.20;;;;;;;23.43;28.47;101530.28;6024832;28;20383;-69
2023/06/04 09:33:08;;;;;;;2.95;1.00;;;;;;;23.25;27.99;101530.91;6019788;28;20034;-69
2023/06/04 09:36:04;;;;;;;2.75;1.20;;;;;;;22.91;29.74;101528.41;6024916;28;20128;-69
2023/06/04 09:39:00;;;;;;;2.28;1.00;;;;;;;22.83;26.96;101536.72;6025740;28;20445;-69
2023/06/04 09:42:01;;;;;;;3.95;0.90;;;;;;;22.84;27.06;101522.97;6025756;28;20113;-69
2023/06/04 09:44:58;;;;;;;2.05;1.13;;;;;;;23.39;26.97;101521.75;6025588;28;20477;-66
2023/06/04 09:47:54;;;;;;;3.97;1.20;;;;;;;23.11;26.46;101535.47;6042194;28;20041;-68
2023/06/04 09:50:49;;;;;;;3.17;0.90;;;;;;;23.25;26.53;101525.47;6045763;28;20040;-69
2023/06/04 09:53:53;;;;;;;3.83;1.15;;;;;;;22.60;27.30;101526.22;6023358;28;20018;-69
2023/06/04 09:56:49;;;;;;;2.28;1.00;;;;;;;22.20;28.18;101529.84;6025351;28;20042;-68
2023/06/04 09:59:45;;;;;;;2.47;0.93;;;;;;;21.65;28.91;101538.88;6025205;28;20385;-69
2023/06/04 10:02:43;;;;;;;7.82;1.20;;;;;;;22.23;28.54;101541.06;6024215;28;20109;-68
2023/06/04 10:05:39;;;;;;;2.53;1.00;;;;;;;22.29;27.40;101534.84;6019828;28;20473;-69
2023/06/04 10:08:34;;;;;;;3.58;1.23;;;;;;;22.75;27.34;101535.00;6019221;28;20041;-69
2023/06/04 10:11:39;;;;;;;1.95;0.95;;;;;;;22.77;26.18;101532.13;6023852;28;20037;-68
2023/06/04 10:14:39;;;;;;;3.70;1.10;;;;;;;22.66;26.26;101527.31;6024294;28;20500;-69
2023/06/04 10:17:34;;;;;;;;;;;;;;;23.33;25.85;101530.69;6017655;28;20039;-68
2023/06/04 10:20:30;;;;;;;2.10;1.00;;;;;;;23.18;25.47;101513.00;6039634;28;19909;-69
2023/06/04 10:23:26;;;;;;;2.78;1.17;;;;;;;22.66;25.78;101527.31;6019468;28;20081;-67
2023/06/04 10:26:21;;;;;;;2.45;1.00;;;;;;;22.63;26.57;101520.44;6020989;28;20034;-70
2023/06/04 10:29:18;;;;;;;9.07;1.25;;;;;;;22.58;26.53;101539.13;6016853;28;20090;-67
2023/06/04 10:32:13;;;;;;;1.60;0.90;;;;;;;22.44;26.11;101527.44;6023803;28;20092;-68
2023/06/04 10:35:09;;;;;;;2.10;1.10;;;;;;;22.93;25.97;101532.56;6020699;28;20038;-68
2023/06/04 10:38:11;;;;;;;2.45;1.00;;;;;;;23.01;26.79;101523.41;6027811;28;20454;-68
2023/06/04 10:41:16;;;;;;;2.60;0.90;;;;;;;23.36;26.97;101516.72;6017394;28;20034;-68
2023/06/04 10:44:12;;;;;;;3.15;0.93;;;;;;;23.57;25.94;101518.38;6028482;28;20032;-68
2023/06/04 10:47:18;;;;;;;2.40;1.00;;;;;;;23.49;25.72;101505.06;6018624;28;20030;-68
2023/06/04 10:50:13;;;;;;;1.40;0.85;;;;;;;23.24;25.97;101531.94;6029527;28;20042;-68
2023/06/04 10:53:09;;;;;;;2.60;1.00;;;;;;;23.16;25.54;101518.59;6028828;28;20389;-68
2023/06/04 10:56:04;;;;;;;1.20;0.93;;;;;;;23.48;26.63;101515.06;6028609;28;20034;-69
2023/06/04 10:59:00;;;;;;;2.03;1.20;;;;;;;23.43;24.73;101525.69;6025641;28;20025;-68
2023/06/04 11:02:04;;;;;;;2.38;1.13;;;;;;;23.32;25.72;101529.00;6018853;28;20403;-68
2023/06/04 11:05:06;;;;;;;3.28;1.20;;;;;;;23.24;25.33;101529.22;6023383;28;20037;-68
2023/06/04 11:08:03;;;;;;;1.90;0.85;;;;;;;23.12;25.85;101511.97;6012799;28;20046;-68
2023/06/04 11:10:58;;;;;;;5.45;1.33;;;;;;;22.77;26.19;101510.47;6026897;28;20056;-68
2023/06/04 11:13:53;;;;;;;2.50;1.10;;;;;;;23.36;26.22;101522.16;6016337;28;20034;-68
2023/06/04 11:16:48;;;;;;;2.53;1.17;;;;;;;23.37;25.37;101517.56;6028953;28;20612;-68
2023/06/04 11:19:44;;;;;;;2.10;1.13;;;;;;;23.40;24.89;101522.59;6028952;28;20027;-67
2023/06/04 11:22:39;;;;;;;2.63;1.23;;;;;;;23.57;25.14;101507.56;6024149;28;20041;-68
2023/06/04 11:25:35;;;;;;;1.83;1.02;;;;;;;23.99;25.40;101501.59;6030275;28;20026;-68
2023/06/04 11:28:30;;;;;;;1.67;0.90;;;;;;;24.18;24.16;101499.88;6027110;28;20449;-67
2023/06/04 11:31:26;;;;;;;3.00;1.20;;;;;;;24.19;25.76;101512.38;6024367;28;20480;-67
2023/06/04 11:34:28;;;;;;;2.03;1.00;;;;;;;24.25;23.87;101497.94;6028564;28;20026;-67
2023/06/04 11:37:24;;;;;;;2.53;1.23;;;;;;;24.87;24.08;101496.34;6018636;28;20061;-67
2023/06/04 11:40:19;;;;;;;3.42;1.00;;;;;;;24.30;24.67;101492.72;6028265;28;20038;-67
2023/06/04 11:43:15;;;;;;;2.80;1.10;;;;;;;24.70;24.18;101483.31;6028576;28;20098;-67
2023/06/04 11:46:10;;;;;;;2.27;1.10;;;;;;;25.02;22.82;101480.56;6027842;28;20366;-67
2023/06/04 11:49:06;;;;;;;3.07;1.00;;;;;;;24.38;23.40;101484.31;6022561;28;20018;-67
2023/06/04 11:52:01;;;;;;;2.92;1.10;;;;;;;24.27;24.51;101487.72;6028625;28;20152;-67
2023/06/04 11:54:57;;;;;;;2.17;0.95;;;;;;;24.23;23.44;101481.06;6025578;28;20034;-70
2023/06/04 11:57:53;;;;;;;2.55;1.02;;;;;;;24.58;24.79;101471.47;6030567;28;20031;-68
2023/06/04 12:00:48;;;;;;;3.63;1.40;;;;;;;24.62;23.35;101475.41;6023932;28;20044;-67
2023/06/04 12:03:44;;;;;;;2.97;1.50;;;;;;;24.20;24.47;101476.09;6037054;28;20077;-67
2023/06/04 12:06:51;;;;;;;2.37;0.87;;;;;;;24.55;24.29;101490.91;6023827;28;20059;-67
2023/06/04 12:09:46;;;;;;;3.80;1.08;;;;;;;24.26;23.24;101496.91;6028456;28;20018;-69
2023/06/04 12:12:42;;;;;;;2.70;1.20;;;;;;;23.98;23.35;101477.41;6027269;28;20058;-69
2023/06/04 12:15:37;;;;;;;2.40;1.00;;;;;;;24.64;22.96;101475.19;6027776;28;20364;-70
2023/06/04 12:18:32;;;;;;;3.83;1.10;;;;;;;24.23;23.23;101476.50;6022970;28;20113;-69
2023/06/04 12:21:28;;;;;;;1.90;1.00;;;;;;;25.02;25.08;101475.13;6027009;28;20053;-67
2023/06/04 12:24:23;;;;;;;2.97;0.93;;;;;;;25.25;23.84;101481.59;6020380;28;20030;-67
2023/06/04 12:27:21;;;;;;;4.57;1.30;;;;;;;25.47;24.11;101467.59;6018899;28;20117;-68
2023/06/04 12:30:17;;;;;;;2.60;0.88;;;;;;;25.55;22.90;101460.00;6026261;28;20189;-69
2023/06/04 12:33:12;;;;;;;2.00;1.17;;;;;;;25.09;23.62;101478.59;6021090;28;20066;-67
2023/06/04 12:36:07;;;;;;;3.07;1.00;;;;;;;25.06;24.31;101460.88;6027287;28;20038;-67
2023/06/04 12:39:04;;;;;;;4.73;1.00;;;;;;;24.86;23.58;101457.53;6017869;28;20309;-67
2023/06/04 12:42:00;;;;;;;3.13;1.10;;;;;;;25.30;24.39;101473.59;6027432;28;20026;-69
2023/06/04 12:44:55;;;;;;;1.67;0.80;;;;;;;25.61;24.79;101478.13;6025305;28;20034;-70
2023/06/04 12:47:51;;;;;;;2.72;0.95;;;;;;;25.73;23.07;101478.19;6027395;28;20348;-67
2023/06/04 12:50:46;;;;;;;2.60;1.10;;;;;;;25.25;24.01;101459.03;6026834;28;20042;-67
2023/06/04 12:53:41;;;;;;;2.73;0.87;;;;;;;25.49;23.19;101469.06;6017061;28;20037;-67
2023/06/04 12:56:36;;;;;;;3.80;1.00;;;;;;;24.62;23.47;101448.25;6008728;28;20026;-67
2023/06/04 12:59:32;;;;;;;3.03;1.07;;;;;;;25.06;23.61;101460.06;6025667;28;20032;-69
2023/06/04 13:02:27;;;;;;;2.37;1.07;;;;;;;25.66;22.94;101463.84;6025209;28;20026;-68
2023/06/04 13:05:22;;;;;;;2.47;1.07;;;;;;;25.16;24.20;101449.53;6020397;28;20048;-68
2023/06/04 13:08:18;;;;;;;4.18;1.30;;;;;;;24.97;22.51;101450.53;6025907;28;20026;-67
2023/06/04 13:11:13;;;;;;;1.17;0.83;;;;;;;25.44;23.09;101455.28;6026879;28;20037;-68
2023/06/04 13:14:09;;;;;;;2.38;1.05;;;;;;;25.56;23.05;101450.78;6026162;28;20037;-68
2023/06/04 13:17:04;;;;;;;2.97;0.82;;;;;;;25.99;23.56;101446.09;6025915;28;20389;-67
2023/06/04 13:19:59;;;;;;;2.20;1.10;;;;;;;26.28;24.14;101449.88;6026899;28;20493;-68
2023/06/04 13:22:55;;;;;;;3.33;1.10;;;;;;;26.15;23.84;101441.91;6024432;28;20080;-68
2023/06/04 13:25:50;;;;;;;2.67;1.30;;;;;;;26.28;24.27;101422.69;6026014;28;20038;-68
2023/06/04 13:28:46;;;;;;;2.38;1.10;;;;;;;26.21;23.54;101434.72;6025949;28;20044;-67
2023/06/04 13:31:42;;;;;;;3.72;1.10;;;;;;;26.38;23.36;101449.34;6025706;28;20054;-67
2023/06/04 13:34:37;;;;;;;1.48;1.00;;;;;;;25.99;23.02;101435.19;6025896;28;20369;-68
2023/06/04 13:37:33;;;;;;;2.17;1.00;;;;;;;25.99;23.68;101435.19;6022675;28;20034;-68
2023/06/04 13:40:28;;;;;;;2.63;1.10;;;;;;;25.53;22.25;101440.38;6021251;28;20026;-68
2023/06/04 13:43:23;;;;;;;2.40;1.05;;;;;;;25.72;22.83;101425.72;6025507;28;20030;-67
2023/06/04 13:46:19;;;;;;;4.17;1.30;;;;;;;25.66;23.05;101425.78;6025382;28;20627;-67